createdAt,value
2023-03-10T00:00:40.633Z,69.83
2023-03-10T00:03:08.641Z,69.89
2023-03-10T00:05:37.817Z,69.69
2023-03-10T00:08:06.089Z,69.74
2023-03-10T00:10:34.158Z,70.02
2023-03-10T00:13:02.248Z,69.84
2023-03-10T00:15:33.228Z,69.77
2023-03-10T00:18:02.548Z,69.65
2023-03-10T00:20:30.617Z,69.79
2023-03-10T00:22:58.680Z,69.86
2023-03-10T00:25:26.650Z,69.66
2023-03-10T00:27:54.576Z,69.62
2023-03-10T00:30:22.608Z,69.66
2023-03-10T00:32:51.088Z,69.61
2023-03-10T00:35:20.454Z,69.63
2023-03-10T00:37:48.372Z,69.73
2023-03-10T00:40:16.480Z,69.77
2023-03-10T00:42:44.908Z,69.86
2023-03-10T00:45:13.042Z,69.84
2023-03-10T00:47:41.077Z,69.88
2023-03-10T00:50:09.731Z,69.96
2023-03-10T00:52:39.103Z,70.06
2023-03-10T00:55:07.492Z,69.80
2023-03-10T00:57:36.778Z,69.52
2023-03-10T01:00:07.350Z,69.52
2023-03-10T01:02:35.244Z,69.43
2023-03-10T01:05:03.246Z,69.34
2023-03-10T01:07:31.317Z,69.23
2023-03-10T01:10:00.642Z,69.41
2023-03-10T01:12:28.642Z,69.32
2023-03-10T01:14:56.675Z,68.51
2023-03-10T01:17:24.691Z,69.07
2023-03-10T01:19:52.618Z,68.78
2023-03-10T01:22:20.586Z,68.34
2023-03-10T01:24:48.739Z,68.31
2023-03-10T01:27:18.192Z,67.96
2023-03-10T01:29:46.131Z,67.67
2023-03-10T01:32:14.153Z,67.87
2023-03-10T01:34:42.167Z,67.93
2023-03-10T01:37:10.100Z,67.56
2023-03-10T01:39:38.119Z,67.44
2023-03-10T01:42:06.338Z,67.83
2023-03-10T01:44:35.837Z,67.75
2023-03-10T01:47:03.863Z,68.00
2023-03-10T01:49:41.607Z,68.02
2023-03-10T01:52:12.106Z,67.65
2023-03-10T01:54:43.814Z,67.92
2023-03-10T01:57:12.696Z,67.73
2023-03-10T01:59:42.716Z,67.60
2023-03-10T02:02:11.008Z,67.78
2023-03-10T02:04:42.464Z,67.57
2023-03-10T02:07:10.690Z,67.48
2023-03-10T02:09:40.401Z,67.18
2023-03-10T02:12:08.965Z,67.25
2023-03-10T02:14:37.369Z,66.88
2023-03-10T02:17:08.456Z,67.00
2023-03-10T02:19:48.879Z,66.50
2023-03-10T02:22:17.408Z,66.51
2023-03-10T02:24:48.353Z,65.86
2023-03-10T02:27:19.254Z,66.01
2023-03-10T02:29:58.802Z,65.89
2023-03-10T02:32:28.147Z,66.05
2023-03-10T02:34:56.186Z,65.68
2023-03-10T02:37:25.642Z,65.59
2023-03-10T02:39:53.585Z,65.68
2023-03-10T02:42:23.926Z,65.45
2023-03-10T02:44:52.910Z,65.34
2023-03-10T02:47:21.301Z,65.02
2023-03-10T02:49:49.678Z,64.77
2023-03-10T02:52:22.782Z,65.02
2023-03-10T02:54:50.657Z,64.87
2023-03-10T02:57:18.826Z,64.73
2023-03-10T02:59:48.151Z,64.68
2023-03-10T03:02:16.128Z,64.81
2023-03-10T03:04:44.023Z,64.61
2023-03-10T03:07:12.513Z,64.50
2023-03-10T03:09:40.351Z,64.40
2023-03-10T03:12:08.768Z,64.37
2023-03-10T03:14:36.801Z,64.51
2023-03-10T03:17:06.397Z,64.79
2023-03-10T03:19:34.412Z,64.45
2023-03-10T03:22:02.402Z,64.71
2023-03-10T03:24:32.215Z,64.24
2023-03-10T03:27:00.212Z,63.91
2023-03-10T03:29:28.122Z,64.18
2023-03-10T03:31:56.290Z,63.68
2023-03-10T03:34:25.770Z,63.36
2023-03-10T03:36:53.753Z,63.43
2023-03-10T03:39:21.765Z,63.39
2023-03-10T03:41:53.374Z,63.19
2023-03-10T03:44:21.444Z,63.45
2023-03-10T03:46:49.461Z,63.29
2023-03-10T03:49:17.761Z,62.82
2023-03-10T03:51:47.065Z,61.90
2023-03-10T03:54:15.041Z,61.50
2023-03-10T03:56:43.181Z,61.66
2023-03-10T03:59:11.181Z,61.66
2023-03-10T04:01:39.106Z,61.58
2023-03-10T04:04:07.019Z,61.69
2023-03-10T04:06:35.231Z,61.11
2023-03-10T04:09:05.050Z,61.39
2023-03-10T04:11:33.080Z,61.05
2023-03-10T04:14:00.935Z,61.10
2023-03-10T04:16:29.000Z,61.22
2023-03-10T04:18:56.972Z,61.33
2023-03-10T04:21:24.866Z,61.67
2023-03-10T04:23:52.850Z,61.53
2023-03-10T04:26:22.246Z,61.00
2023-03-10T04:28:50.197Z,61.28
2023-03-10T04:31:19.314Z,61.50
2023-03-10T04:33:47.420Z,61.81
2023-03-10T04:36:15.482Z,62.06
2023-03-10T04:38:43.782Z,62.17
2023-03-10T04:41:11.837Z,61.89
2023-03-10T04:43:42.753Z,61.91
2023-03-10T04:46:11.691Z,61.90
2023-03-10T04:48:39.790Z,61.98
2023-03-10T04:51:09.838Z,61.69
2023-03-10T04:53:38.261Z,61.86
2023-03-10T04:56:07.300Z,62.30
2023-03-10T04:58:35.789Z,62.11
2023-03-10T05:01:09.050Z,62.02
2023-03-10T05:03:37.268Z,62.44
2023-03-10T05:06:05.998Z,61.90
2023-03-10T05:08:34.135Z,62.76
2023-03-10T05:11:03.224Z,62.38
2023-03-10T05:13:31.931Z,62.65
2023-03-10T05:16:00.024Z,62.13
2023-03-10T05:18:29.726Z,62.41
2023-03-10T05:20:58.264Z,62.45
2023-03-10T05:23:27.128Z,62.68
2023-03-10T05:25:55.076Z,62.88
2023-03-10T05:28:23.958Z,62.95
2023-03-10T05:30:52.198Z,62.62
2023-03-10T05:33:20.154Z,62.57
2023-03-10T05:35:50.088Z,62.40
2023-03-10T05:38:18.501Z,62.71
2023-03-10T05:40:46.740Z,62.48
2023-03-10T05:43:17.558Z,62.38
2023-03-10T05:45:45.689Z,62.26
2023-03-10T05:48:13.811Z,62.10
2023-03-10T05:50:42.129Z,61.43
2023-03-10T05:53:11.539Z,61.31
2023-03-10T05:55:39.383Z,61.54
2023-03-10T05:58:07.419Z,61.34
2023-03-10T06:00:35.418Z,60.62
2023-03-10T06:03:04.778Z,59.43
2023-03-10T06:05:32.805Z,59.97
2023-03-10T06:08:01.193Z,59.74
2023-03-10T06:10:30.492Z,59.86
2023-03-10T06:12:58.387Z,59.69
2023-03-10T06:15:26.651Z,59.65
2023-03-10T06:17:54.958Z,59.06
2023-03-10T06:20:22.873Z,58.66
2023-03-10T06:22:52.102Z,58.66
2023-03-10T06:25:20.117Z,57.68
2023-03-10T06:27:49.535Z,57.81
2023-03-10T06:30:17.784Z,58.11
2023-03-10T06:32:46.033Z,58.00
2023-03-10T06:35:14.811Z,58.82
2023-03-10T06:37:43.054Z,58.22
2023-03-10T06:40:13.191Z,58.76
2023-03-10T06:42:41.339Z,59.23
2023-03-10T06:45:12.164Z,59.10
2023-03-10T06:47:40.259Z,59.21
2023-03-10T06:50:08.865Z,59.02
2023-03-10T06:52:36.852Z,58.21
2023-03-10T06:55:05.215Z,58.86
2023-03-10T06:57:33.157Z,58.76
2023-03-10T07:00:01.139Z,59.01
2023-03-10T07:02:30.550Z,59.22
2023-03-10T07:04:58.609Z,58.90
2023-03-10T07:07:26.597Z,58.51
2023-03-10T07:09:54.670Z,58.92
2023-03-10T07:12:22.616Z,59.13
2023-03-10T07:14:50.642Z,58.52
2023-03-10T07:17:19.035Z,57.63
2023-03-10T07:19:48.330Z,57.57
2023-03-10T07:22:16.460Z,57.02
2023-03-10T07:24:44.546Z,57.17
2023-03-10T07:27:12.509Z,56.98
2023-03-10T07:29:40.595Z,57.11
2023-03-10T07:32:08.752Z,57.41
2023-03-10T07:34:38.128Z,56.21
2023-03-10T07:37:07.585Z,56.91
2023-03-10T07:39:35.892Z,56.21
2023-03-10T07:42:04.105Z,55.60
2023-03-10T07:44:32.061Z,55.78
2023-03-10T07:47:00.304Z,54.52
2023-03-10T07:49:28.502Z,54.78
2023-03-10T07:51:56.568Z,54.59
2023-03-10T07:54:26.346Z,54.27
2023-03-10T07:56:54.249Z,53.68
2023-03-10T07:59:22.299Z,53.94
2023-03-10T08:01:50.545Z,54.00
2023-03-10T08:04:18.617Z,53.25
2023-03-10T08:06:47.567Z,52.95
2023-03-10T08:09:16.054Z,52.83
2023-03-10T08:11:45.547Z,52.75
2023-03-10T08:14:13.934Z,52.12
2023-03-10T08:16:42.206Z,50.73
2023-03-10T08:19:10.532Z,51.54
2023-03-10T08:21:38.875Z,51.85
2023-03-10T08:24:07.541Z,50.87
2023-03-10T08:26:35.672Z,50.64
2023-03-10T08:29:05.223Z,50.76
2023-03-10T08:31:33.433Z,50.67
2023-03-10T08:34:01.566Z,49.36
2023-03-10T08:36:30.570Z,50.43
2023-03-10T08:39:00.634Z,51.48
2023-03-10T08:41:30.251Z,52.10
2023-03-10T08:43:59.630Z,50.29
2023-03-10T08:46:29.812Z,51.41
2023-03-10T08:48:58.352Z,52.03
2023-03-10T08:51:26.894Z,51.22
2023-03-10T08:53:55.085Z,51.67
2023-03-10T08:56:23.981Z,51.27
2023-03-10T08:58:54.414Z,51.54
2023-03-10T09:01:22.473Z,51.84
2023-03-10T09:03:51.914Z,51.79
2023-03-10T09:06:20.168Z,52.60
2023-03-10T09:08:50.746Z,52.47
2023-03-10T09:11:20.259Z,52.49
2023-03-10T09:13:48.539Z,51.98
2023-03-10T09:16:17.162Z,52.06
2023-03-10T09:18:45.206Z,51.98
2023-03-10T09:21:15.959Z,52.13
2023-03-10T09:23:45.165Z,52.26
2023-03-10T09:26:13.362Z,52.23
2023-03-10T09:28:41.636Z,51.87
2023-03-10T09:31:12.062Z,52.18
2023-03-10T09:33:40.751Z,51.54
2023-03-10T09:36:09.125Z,52.06
2023-03-10T09:38:38.600Z,51.73
2023-03-10T09:41:14.998Z,52.22
2023-03-10T09:43:50.629Z,51.70
2023-03-10T09:46:22.019Z,51.46
2023-03-10T09:48:54.504Z,51.32
2023-03-10T09:51:23.554Z,51.65
2023-03-10T09:53:59.419Z,52.13
2023-03-10T09:56:31.727Z,51.91
2023-03-10T09:59:02.816Z,52.25
2023-03-10T10:01:32.901Z,51.95
2023-03-10T10:04:06.535Z,52.69
2023-03-10T10:06:35.703Z,52.32
2023-03-10T10:09:07.256Z,52.55
2023-03-10T10:11:36.889Z,52.47
2023-03-10T10:14:27.943Z,52.31
2023-03-10T10:17:01.434Z,52.36
2023-03-10T10:19:29.851Z,51.95
2023-03-10T10:22:01.619Z,52.43
2023-03-10T10:24:31.397Z,52.41
2023-03-10T10:26:59.640Z,51.73
2023-03-10T10:29:28.558Z,51.24
2023-03-10T10:32:07.838Z,50.75
2023-03-10T10:34:37.433Z,51.31
2023-03-10T10:37:22.301Z,51.85
2023-03-10T10:39:54.827Z,51.47
2023-03-10T10:42:25.426Z,51.53
2023-03-10T10:44:54.805Z,51.82
2023-03-10T10:47:27.762Z,52.21
2023-03-10T10:49:57.087Z,52.46
2023-03-10T10:52:27.623Z,52.57
2023-03-10T10:54:59.294Z,52.05
2023-03-10T10:57:30.257Z,51.18
2023-03-10T11:00:18.638Z,51.82
2023-03-10T11:02:47.409Z,51.11
2023-03-10T11:05:17.279Z,51.21
2023-03-10T11:07:47.007Z,51.56
2023-03-10T11:10:18.471Z,51.15
2023-03-10T11:12:56.389Z,51.42
2023-03-10T11:15:28.841Z,51.93
2023-03-10T11:17:58.698Z,51.71
2023-03-10T11:20:29.591Z,51.41
2023-03-10T11:23:02.417Z,51.04
2023-03-10T11:25:38.328Z,51.33
2023-03-10T11:28:14.541Z,51.73
2023-03-10T11:30:47.413Z,51.82
2023-03-10T11:33:20.890Z,52.09
2023-03-10T11:35:51.678Z,52.23
2023-03-10T11:38:31.585Z,52.15
2023-03-10T11:41:04.097Z,52.40
2023-03-10T11:43:33.838Z,52.62
2023-03-10T11:46:05.350Z,52.58
2023-03-10T11:48:39.250Z,52.50
2023-03-10T11:51:07.839Z,52.82
2023-03-10T11:53:38.167Z,51.85
2023-03-10T11:56:09.522Z,52.00
2023-03-10T11:58:42.831Z,51.96
2023-03-10T12:01:13.286Z,51.98
2023-03-10T12:03:44.788Z,51.36
2023-03-10T12:06:14.502Z,51.73
2023-03-10T12:08:43.541Z,52.24
2023-03-10T12:11:16.768Z,52.07
2023-03-10T12:13:46.920Z,52.03
2023-03-10T12:16:17.612Z,51.84
2023-03-10T12:18:45.788Z,51.44
2023-03-10T12:21:19.010Z,51.24
2023-03-10T12:23:47.599Z,50.82
2023-03-10T12:26:17.286Z,48.87
2023-03-10T12:28:45.487Z,47.75
2023-03-10T12:31:33.546Z,49.10
2023-03-10T12:34:15.013Z,49.43
2023-03-10T12:36:44.709Z,48.57
2023-03-10T12:39:30.528Z,48.18
2023-03-10T12:42:03.714Z,47.68
2023-03-10T12:44:48.584Z,47.06
2023-03-10T12:47:28.918Z,47.86
2023-03-10T12:49:59.811Z,48.11
2023-03-10T12:52:39.954Z,48.24
2023-03-10T12:55:19.959Z,47.89
2023-03-10T12:58:13.117Z,48.18
2023-03-10T13:00:44.813Z,47.90
2023-03-10T13:03:18.689Z,48.03
2023-03-10T13:05:58.621Z,47.88
2023-03-10T13:08:30.908Z,47.64
2023-03-10T13:11:00.794Z,47.83
2023-03-10T13:13:31.573Z,47.90
2023-03-10T13:16:00.386Z,48.19
2023-03-10T13:18:28.570Z,48.20
2023-03-10T13:20:56.676Z,48.45
2023-03-10T13:23:25.457Z,48.12
2023-03-10T13:25:54.154Z,49.00
2023-03-10T13:28:22.289Z,49.01
2023-03-10T13:30:51.970Z,48.76
2023-03-10T13:33:24.621Z,48.79
2023-03-10T13:35:54.139Z,46.76
2023-03-10T13:38:24.802Z,45.11
2023-03-10T13:41:01.080Z,44.71
2023-03-10T13:43:35.473Z,43.46
2023-03-10T13:46:09.935Z,40.63
2023-03-10T13:48:39.048Z,39.28
2023-03-10T13:51:08.918Z,41.29
2023-03-10T13:53:37.046Z,40.44
2023-03-10T13:56:16.952Z,40.28
2023-03-10T13:58:45.969Z,42.39
2023-03-10T14:01:18.680Z,41.33
2023-03-10T14:03:53.945Z,43.63
2023-03-10T14:06:23.009Z,43.75
2023-03-10T14:08:51.969Z,43.60
2023-03-10T14:11:33.478Z,44.57
2023-03-10T14:14:01.643Z,44.28
2023-03-10T14:16:44.606Z,43.92
2023-03-10T14:19:14.236Z,44.17
2023-03-10T14:21:58.496Z,44.11
2023-03-10T14:24:29.219Z,44.18
2023-03-10T14:27:01.069Z,45.09
2023-03-10T14:29:30.930Z,45.52
2023-03-10T14:31:58.878Z,45.61
2023-03-10T14:34:28.213Z,46.31
2023-03-10T14:36:56.240Z,46.89
2023-03-10T14:39:24.183Z,46.62
2023-03-10T14:41:52.511Z,46.38
2023-03-10T14:44:20.475Z,47.19
2023-03-10T14:46:53.291Z,47.70
2023-03-10T14:49:24.093Z,47.50
2023-03-10T14:51:53.454Z,47.80
2023-03-10T14:54:22.467Z,47.66
2023-03-10T14:56:53.843Z,47.58
2023-03-10T14:59:21.959Z,48.06
2023-03-10T15:01:50.147Z,48.43
2023-03-10T15:04:18.818Z,48.25
2023-03-10T15:06:46.835Z,48.89
2023-03-10T15:09:16.204Z,48.56
2023-03-10T15:11:44.309Z,49.29
2023-03-10T15:14:15.110Z,49.68
2023-03-10T15:16:42.969Z,50.31
2023-03-10T15:19:15.645Z,49.95
2023-03-10T15:21:43.745Z,50.45
2023-03-10T15:24:11.904Z,50.85
2023-03-10T15:26:41.559Z,50.81
2023-03-10T15:29:11.569Z,51.19
2023-03-10T15:31:39.561Z,51.67
2023-03-10T15:34:07.854Z,51.74
2023-03-10T15:36:36.162Z,51.62
2023-03-10T15:39:04.975Z,51.57
2023-03-10T15:41:35.160Z,51.86
2023-03-10T15:44:04.678Z,52.08
2023-03-10T15:46:32.853Z,52.62
2023-03-10T15:49:03.304Z,52.25
2023-03-10T15:51:31.232Z,52.49
2023-03-10T15:53:59.220Z,52.51
2023-03-10T15:56:27.336Z,52.55
2023-03-10T15:58:55.700Z,52.87
2023-03-10T16:01:25.091Z,52.53
2023-03-10T16:03:53.132Z,52.95
2023-03-10T16:06:25.286Z,52.64
2023-03-10T16:08:53.190Z,52.72
2023-03-10T16:11:22.125Z,53.21
2023-03-10T16:13:50.591Z,53.00
2023-03-10T16:16:19.643Z,52.93
2023-03-10T16:18:49.137Z,52.84
2023-03-10T16:21:18.126Z,53.23
2023-03-10T16:23:46.317Z,53.35
2023-03-10T16:26:15.135Z,53.33
2023-03-10T16:28:44.155Z,53.30
2023-03-10T16:31:13.185Z,53.31
2023-03-10T16:33:43.732Z,53.62
2023-03-10T16:36:15.393Z,53.56
2023-03-10T16:38:43.401Z,53.81
2023-03-10T16:41:11.469Z,53.55
2023-03-10T16:43:39.922Z,53.77
2023-03-10T16:46:09.416Z,53.99
2023-03-10T16:48:38.399Z,54.08
2023-03-10T16:51:19.083Z,54.02
2023-03-10T16:53:48.691Z,54.33
2023-03-10T16:56:16.987Z,54.39
2023-03-10T16:58:45.250Z,54.14
2023-03-10T17:01:13.304Z,54.23
2023-03-10T17:03:41.411Z,54.42
2023-03-10T17:06:13.401Z,54.47
2023-03-10T17:08:42.358Z,54.43
2023-03-10T17:11:18.137Z,54.79
2023-03-10T17:13:47.492Z,54.58
2023-03-10T17:16:18.417Z,54.93
2023-03-10T17:18:46.530Z,55.21
2023-03-10T17:21:15.773Z,54.87
2023-03-10T17:23:44.065Z,54.84
2023-03-10T17:26:12.827Z,54.85
2023-03-10T17:28:42.759Z,54.98
2023-03-10T17:31:11.091Z,55.11
2023-03-10T17:33:39.359Z,55.09
2023-03-10T17:36:08.219Z,54.89
2023-03-10T17:38:36.581Z,54.87
2023-03-10T17:41:05.341Z,55.13
2023-03-10T17:43:34.623Z,55.47
2023-03-10T17:46:05.399Z,55.28
2023-03-10T17:48:34.424Z,55.26
2023-03-10T17:51:02.420Z,55.49
2023-03-10T17:53:30.833Z,55.30
2023-03-10T17:55:59.227Z,55.14
2023-03-10T17:58:27.124Z,55.33
2023-03-10T18:00:55.254Z,55.47
2023-03-10T18:03:24.685Z,55.27
2023-03-10T18:05:52.997Z,55.21
2023-03-10T18:08:21.043Z,55.38
2023-03-10T18:10:59.723Z,55.09
2023-03-10T18:13:27.739Z,55.19
2023-03-10T18:15:55.789Z,55.09
2023-03-10T18:18:25.421Z,55.39
2023-03-10T18:20:53.516Z,55.08
2023-03-10T18:23:23.067Z,55.12
2023-03-10T18:25:51.581Z,55.29
2023-03-10T18:28:20.517Z,55.25
2023-03-10T18:30:50.002Z,55.43
2023-03-10T18:33:18.120Z,55.27
2023-03-10T18:35:47.693Z,55.16
2023-03-10T18:38:16.921Z,55.33
2023-03-10T18:40:44.866Z,55.31
2023-03-10T18:43:12.850Z,55.34
2023-03-10T18:45:41.115Z,55.46
2023-03-10T18:48:09.161Z,55.45
2023-03-10T18:50:37.238Z,55.41
2023-03-10T18:53:07.868Z,55.25
2023-03-10T18:55:35.805Z,55.28
2023-03-10T18:58:04.059Z,55.21
2023-03-10T19:00:32.025Z,55.21
2023-03-10T19:02:59.874Z,54.97
2023-03-10T19:05:28.250Z,54.96
2023-03-10T19:07:56.742Z,55.14
2023-03-10T19:10:26.518Z,55.08
2023-03-10T19:12:54.490Z,55.13
2023-03-10T19:15:22.717Z,54.97
2023-03-10T19:17:50.952Z,54.81
2023-03-10T19:20:21.369Z,55.04
2023-03-10T19:22:50.950Z,55.06
2023-03-10T19:25:19.535Z,54.78
2023-03-10T19:27:49.123Z,54.99
2023-03-10T19:30:22.287Z,55.16
2023-03-10T19:32:51.330Z,54.89
2023-03-10T19:35:19.676Z,54.88
2023-03-10T19:37:47.650Z,55.05
2023-03-10T19:40:16.548Z,55.28
2023-03-10T19:42:44.944Z,55.24
2023-03-10T19:45:15.815Z,55.28
2023-03-10T19:47:44.180Z,55.23
2023-03-10T19:50:13.065Z,55.23
2023-03-10T19:52:46.289Z,55.39
2023-03-10T19:55:19.969Z,55.34
2023-03-10T19:57:48.761Z,55.29
2023-03-10T20:00:20.808Z,55.22
2023-03-10T20:02:48.893Z,55.34
2023-03-10T20:05:17.567Z,55.25
2023-03-10T20:07:46.671Z,55.36
2023-03-10T20:10:15.143Z,55.17
2023-03-10T20:12:43.119Z,55.13
2023-03-10T20:15:11.816Z,55.07
2023-03-10T20:17:41.190Z,54.81
2023-03-10T20:20:11.332Z,55.02
2023-03-10T20:22:40.610Z,54.85
2023-03-10T20:25:09.049Z,54.84
2023-03-10T20:27:37.655Z,54.79
2023-03-10T20:30:06.971Z,54.93
2023-03-10T20:32:35.589Z,55.13
2023-03-10T20:35:05.516Z,55.04
2023-03-10T20:37:35.950Z,55.13
2023-03-10T20:40:05.850Z,54.85
2023-03-10T20:42:34.169Z,54.97
2023-03-10T20:45:02.708Z,54.81
2023-03-10T20:47:31.251Z,55.07
2023-03-10T20:49:59.429Z,54.93
2023-03-10T20:52:28.789Z,55.10
2023-03-10T20:54:57.112Z,55.16
2023-03-10T20:57:25.459Z,55.12
2023-03-10T20:59:53.362Z,55.15
2023-03-10T21:02:21.338Z,55.13
2023-03-10T21:04:49.547Z,55.05
2023-03-10T21:07:17.924Z,55.02
2023-03-10T21:09:47.514Z,55.08
2023-03-10T21:12:18.689Z,55.24
2023-03-10T21:14:46.641Z,54.95
2023-03-10T21:17:14.937Z,55.02
2023-03-10T21:19:42.900Z,55.05
2023-03-10T21:22:10.932Z,55.09
2023-03-10T21:24:39.295Z,54.99
2023-03-10T21:27:08.875Z,54.95
2023-03-10T21:29:36.854Z,55.10
2023-03-10T21:32:05.056Z,55.05
2023-03-10T21:34:33.390Z,55.19
2023-03-10T21:37:01.360Z,55.23
2023-03-10T21:39:29.461Z,55.25
2023-03-10T21:41:57.438Z,55.06
2023-03-10T21:44:26.757Z,55.22
2023-03-10T21:46:55.421Z,55.04
2023-03-10T21:49:23.641Z,55.12
2023-03-10T21:51:51.717Z,55.11
2023-03-10T21:54:19.941Z,55.03
2023-03-10T21:56:47.892Z,54.80
2023-03-10T21:59:16.817Z,54.99
2023-03-10T22:01:46.203Z,55.21
2023-03-10T22:04:14.485Z,55.24
2023-03-10T22:06:42.416Z,55.19
2023-03-10T22:09:11.638Z,55.41
2023-03-10T22:11:39.694Z,55.40
2023-03-10T22:14:07.769Z,55.32
2023-03-10T22:16:35.676Z,55.50
2023-03-10T22:19:08.242Z,55.48
2023-03-10T22:21:36.098Z,55.61
2023-03-10T22:24:04.209Z,55.58
2023-03-10T22:26:32.191Z,55.60
2023-03-10T22:29:00.505Z,55.68
2023-03-10T22:31:28.539Z,55.79
2023-03-10T22:33:56.475Z,55.75
2023-03-10T22:36:25.803Z,55.73
2023-03-10T22:38:53.633Z,55.76
2023-03-10T22:41:21.621Z,55.80
2023-03-10T22:43:49.602Z,55.65
2023-03-10T22:46:17.626Z,55.50
2023-03-10T22:48:45.534Z,55.35
2023-03-10T22:51:14.949Z,55.38
2023-03-10T22:53:46.519Z,55.52
2023-03-10T22:56:14.392Z,55.51
2023-03-10T22:58:42.438Z,55.43
2023-03-10T23:01:10.410Z,55.21
2023-03-10T23:03:38.330Z,55.36
2023-03-10T23:06:06.704Z,55.40
2023-03-10T23:08:36.206Z,55.60
2023-03-10T23:11:10.649Z,55.53
2023-03-10T23:13:39.045Z,55.49
2023-03-10T23:16:07.547Z,55.64
2023-03-10T23:18:35.460Z,55.77
2023-03-10T23:21:04.258Z,55.43
2023-03-10T23:23:32.319Z,55.63
2023-03-10T23:26:00.325Z,55.59
2023-03-10T23:28:29.810Z,55.37
2023-03-10T23:30:59.248Z,55.75
2023-03-10T23:33:27.412Z,55.55
2023-03-10T23:35:55.330Z,55.72
2023-03-10T23:38:23.973Z,55.79
2023-03-10T23:40:52.733Z,55.79
2023-03-10T23:43:20.709Z,55.68
2023-03-10T23:45:50.027Z,55.85
2023-03-10T23:48:19.110Z,55.89
2023-03-10T23:50:47.885Z,56.02
2023-03-10T23:53:17.168Z,55.93
2023-03-10T23:55:46.278Z,56.02
2023-03-10T23:58:15.029Z,56.00
